Time;durP1;ratioP1;P1;durP2;ratioP2;P2;SDS_P1;SDS_P2;PMS_P1;PMS_P2;Temp;Humidity;BMP_temperature;BMP_pressure;BME280_temperature;BME280_humidity;BME280_pressure;Samples;Min_cycle;Max_cycle;Signal;HPM_P1;HPM_P2
2021/12/25 00:01:42;;;;;;;14.00;8.02;;;9.10;99.90;;;;;;5074158;28;20028;-85
2021/12/25 00:04:08;;;;;;;15.52;8.68;;;9.10;99.90;;;;;;5087263;28;20059;-85
2021/12/25 00:06:35;;;;;;;18.20;9.25;;;9.10;99.90;;;;;;5093874;28;20082;-85
2021/12/25 00:09:04;;;;;;;15.30;8.75;;;9.10;99.90;;;;;;5094266;28;20484;-85
2021/12/25 00:11:29;;;;;;;14.23;7.72;;;9.10;99.90;;;;;;5093618;28;20453;-85
2021/12/25 00:13:55;;;;;;;16.38;8.43;;;9.10;99.90;;;;;;5095090;28;20020;-86
2021/12/25 00:16:21;;;;;;;15.90;8.25;;;9.10;99.90;;;;;;5094251;28;20081;-85
2021/12/25 00:18:46;;;;;;;14.32;8.35;;;9.20;99.90;;;;;;5095159;28;20396;-85
2021/12/25 00:21:12;;;;;;;15.60;8.10;;;9.20;99.90;;;;;;5094012;28;20401;-84
2021/12/25 00:23:38;;;;;;;17.27;8.65;;;9.20;99.90;;;;;;5094743;28;20506;-85
2021/12/25 00:26:10;;;;;;;15.25;8.18;;;9.30;99.90;;;;;;5094043;28;20605;-85
2021/12/25 00:29:04;;;;;;;16.02;8.15;;;9.20;99.90;;;;;;5093519;28;20107;-85
2021/12/25 00:31:30;;;;;;;14.77;8.00;;;9.20;99.90;;;;;;5093936;28;20081;-84
2021/12/25 00:34:01;;;;;;;16.52;8.77;;;9.30;99.90;;;;;;5081882;28;20036;-85
2021/12/25 00:36:27;;;;;;;15.73;8.38;;;9.30;99.90;;;;;;5073047;28;20099;-84
2021/12/25 00:38:54;;;;;;;15.32;7.97;;;9.20;99.90;;;;;;5073172;28;20021;-84
2021/12/25 00:41:22;;;;;;;33.65;16.48;;;9.20;99.90;;;;;;5072809;28;20029;-84
2021/12/25 00:43:49;;;;;;;26.83;13.38;;;9.20;99.90;;;;;;5074228;28;20028;-84
2021/12/25 00:46:15;;;;;;;22.52;10.18;;;9.20;99.90;;;;;;5073893;28;20040;-83
2021/12/25 00:48:41;;;;;;;16.92;8.20;;;9.20;99.90;;;;;;5074415;28;20029;-84
2021/12/25 00:51:06;;;;;;;12.75;7.95;;;9.20;99.90;;;;;;5073252;28;20024;-84
2021/12/25 00:53:32;;;;;;;14.32;7.80;;;9.20;99.90;;;;;;5073948;28;20029;-85
2021/12/25 00:55:58;;;;;;;17.08;7.82;;;9.20;99.90;;;;;;5073033;28;20040;-85
2021/12/25 00:58:24;;;;;;;14.05;7.60;;;9.20;99.90;;;;;;5072703;28;20029;-84
2021/12/25 01:00:51;;;;;;;13.13;7.25;;;9.20;99.90;;;;;;5072918;28;20093;-84
2021/12/25 01:03:16;;;;;;;16.23;8.05;;;9.20;99.90;;;;;;5072458;28;20024;-83
2021/12/25 01:05:42;;;;;;;13.13;7.70;;;9.20;99.90;;;;;;5073070;28;20500;-85
2021/12/25 01:08:08;;;;;;;14.25;7.78;;;9.20;99.90;;;;;;5073066;28;20111;-84
2021/12/25 01:10:34;;;;;;;15.48;8.35;;;9.30;99.90;;;;;;5073718;28;20446;-84
2021/12/25 01:16:00;;;;;;;15.85;8.05;;;9.30;99.90;;;;;;5073597;28;20462;-84
2021/12/25 01:21:35;;;;;;;14.93;7.82;;;9.30;99.90;;;;;;5078278;28;20501;-85
2021/12/25 01:37:00;;;;;;;13.85;8.40;;;9.10;99.90;;;;;;5093983;28;20052;-84
2021/12/25 01:39:55;;;;;;;16.30;8.38;;;9.10;99.90;;;;;;5093493;28;20468;-84
2021/12/25 01:47:50;;;;;;;16.38;8.75;;;9.20;99.90;;;;;;5093495;28;20512;-84
2021/12/25 01:50:22;;;;;;;14.23;7.97;;;9.20;99.90;;;;;;5075999;28;20114;-84
2021/12/25 01:52:48;;;;;;;;;;;9.20;99.90;;;;;;5076774;28;20025;-85
2021/12/25 01:55:17;;;;;;;16.00;8.82;;;9.20;99.90;;;;;;5076092;28;19957;-84
2021/12/25 01:57:43;;;;;;;16.20;8.90;;;9.30;99.90;;;;;;5075472;28;20111;-84
2021/12/25 02:00:33;;;;;;;18.02;8.25;;;9.20;99.90;;;;;;5079544;28;20112;-85
2021/12/25 02:03:00;;;;;;;15.82;8.20;;;9.30;99.90;;;;;;5079183;28;20067;-84
2021/12/25 02:05:25;;;;;;;18.17;8.13;;;9.30;99.90;;;;;;5078938;28;20036;-84
2021/12/25 02:07:51;;;;;;;15.35;8.15;;;9.30;99.90;;;;;;5097517;28;20024;-84
2021/12/25 02:10:18;;;;;;;17.25;8.50;;;9.30;99.90;;;;;;5097373;28;20073;-84
2021/12/25 02:12:45;;;;;;;18.60;8.82;;;9.30;99.90;;;;;;5079252;28;20055;-84
2021/12/25 02:15:16;;;;;;;17.15;9.20;;;9.30;99.90;;;;;;5079545;28;20024;-84
2021/12/25 02:21:08;;;;;;;14.82;7.90;;;9.30;99.90;;;;;;5074598;28;20028;-84
2021/12/25 02:23:30;;;;;;;16.08;8.05;;;9.30;99.90;;;;;;5095418;28;20380;-84
2021/12/25 02:25:57;;;;;;;16.27;8.05;;;9.30;99.90;;;;;;5096893;28;20127;-84
2021/12/25 02:28:25;;;;;;;17.38;8.55;;;9.30;99.90;;;;;;5078613;28;20083;-84
2021/12/25 02:30:54;;;;;;;14.82;8.48;;;9.20;99.90;;;;;;5078979;28;20024;-84
2021/12/25 02:33:20;;;;;;;17.52;8.65;;;9.20;99.90;;;;;;5078794;28;20132;-84
2021/12/25 02:35:46;;;;;;;19.58;9.63;;;9.30;99.90;;;;;;5079446;28;20481;-84
2021/12/25 02:38:13;;;;;;;19.13;9.40;;;9.30;99.90;;;;;;5079220;28;20032;-84
2021/12/25 02:40:40;;;;;;;19.65;8.80;;;9.30;99.90;;;;;;5078408;28;20097;-84
2021/12/25 02:43:06;;;;;;;17.15;8.80;;;9.20;99.90;;;;;;5079304;28;20032;-84
2021/12/25 02:45:31;;;;;;;19.98;9.57;;;9.30;99.90;;;;;;5078338;28;20028;-84
2021/12/25 02:47:57;;;;;;;16.42;9.32;;;9.30;99.90;;;;;;5079072;28;20031;-84
2021/12/25 02:50:28;;;;;;;22.08;10.70;;;9.30;99.90;;;;;;5078278;28;20027;-84
2021/12/25 02:52:56;;;;;;;20.37;9.57;;;9.20;99.90;;;;;;5078977;28;20073;-84
2021/12/25 02:55:23;;;;;;;17.20;9.45;;;9.30;99.90;;;;;;5078239;28;20031;-83
2021/12/25 02:57:52;;;;;;;17.80;9.50;;;9.30;99.90;;;;;;5078867;28;20042;-84
2021/12/25 03:00:28;;;;;;;20.45;9.35;;;9.30;99.90;;;;;;5096434;28;20032;-84
2021/12/25 03:02:54;;;;;;;18.17;8.90;;;9.30;99.90;;;;;;5078552;28;20026;-84
2021/12/25 03:05:20;;;;;;;17.42;9.02;;;9.20;99.90;;;;;;5096391;28;20029;-84
2021/12/25 03:07:46;;;;;;;17.80;9.45;;;9.20;99.90;;;;;;5077929;28;20027;-84
2021/12/25 03:10:14;;;;;;;20.40;10.40;;;9.20;99.90;;;;;;5078224;28;20036;-84
2021/12/25 03:13:28;;;;;;;21.17;11.18;;;9.20;99.90;;;;;;5077889;28;20031;-84
2021/12/25 03:15:45;;;;;;;22.15;10.95;;;9.20;99.90;;;;;;5092290;28;20036;-84
2021/12/25 03:18:21;;;;;;;23.00;10.57;;;9.20;99.90;;;;;;5096291;28;20028;-84
2021/12/25 03:20:51;;;;;;;21.20;10.32;;;9.10;99.90;;;;;;5077700;28;20062;-85
2021/12/25 03:23:20;;;;;;;23.27;11.05;;;9.10;99.90;;;;;;5061607;28;20111;-84
2021/12/25 03:25:47;;;;;;;23.35;10.60;;;9.10;99.90;;;;;;5077478;28;20036;-84
2021/12/25 03:28:15;;;;;;;21.50;11.38;;;9.10;99.90;;;;;;5078110;28;20028;-84
2021/12/25 03:30:43;;;;;;;24.25;11.23;;;9.10;99.90;;;;;;5077643;28;20050;-84
2021/12/25 03:33:13;;;;;;;21.48;10.43;;;9.10;99.90;;;;;;5082843;28;20019;-84
2021/12/25 03:35:38;;;;;;;23.48;10.70;;;9.10;99.90;;;;;;5097750;28;20032;-84
2021/12/25 03:38:07;;;;;;;23.90;11.90;;;9.10;99.90;;;;;;5098154;28;20030;-84
2021/12/25 03:40:33;;;;;;;23.60;11.15;;;9.10;99.90;;;;;;5097263;28;20034;-84
2021/12/25 03:42:59;;;;;;;23.60;11.35;;;9.10;99.90;;;;;;5116531;28;20027;-85
2021/12/25 03:45:28;;;;;;;23.00;10.93;;;9.10;99.90;;;;;;5115698;28;20020;-83
2021/12/25 03:48:04;;;;;;;22.70;10.48;;;9.10;99.90;;;;;;5116062;28;20030;-84
2021/12/25 03:58:46;;;;;;;20.17;9.80;;;9.10;99.90;;;;;;5067595;28;20039;-84
2021/12/25 04:01:41;;;;;;;23.30;10.20;;;9.10;99.90;;;;;;5097769;28;20126;-84
2021/12/25 04:04:14;;;;;;;18.67;8.88;;;9.10;99.90;;;;;;5115743;28;20023;-84
2021/12/25 04:06:47;;;;;;;21.85;9.77;;;9.10;99.90;;;;;;5115370;28;20055;-84
2021/12/25 04:09:25;;;;;;;22.50;10.13;;;9.10;99.90;;;;;;5098107;28;20027;-84
2021/12/25 04:11:52;;;;;;;22.13;9.52;;;9.10;99.90;;;;;;5096836;28;20027;-84
2021/12/25 04:14:18;;;;;;;21.65;10.23;;;9.10;99.90;;;;;;5097527;28;20028;-84
2021/12/25 04:16:44;;;;;;;21.55;10.00;;;9.10;99.90;;;;;;5096816;28;20091;-84
2021/12/25 04:19:10;;;;;;;21.50;9.68;;;9.10;99.90;;;;;;5097649;28;20024;-84
2021/12/25 04:21:36;;;;;;;23.65;10.10;;;9.10;99.90;;;;;;5096150;28;20476;-84
2021/12/25 04:24:03;;;;;;;23.02;10.38;;;9.10;99.90;;;;;;5097216;28;20076;-84
2021/12/25 04:26:28;;;;;;;21.27;9.15;;;9.10;99.90;;;;;;5096785;28;20057;-83
2021/12/25 04:31:33;;;;;;;21.83;9.68;;;9.10;99.90;;;;;;5115028;28;20024;-84
2021/12/25 04:50:22;;;;;;;25.13;11.75;;;9.10;99.90;;;;;;5115105;28;20499;-84
2021/12/25 05:06:11;;;;;;;22.08;10.25;;;9.10;99.90;;;;;;5114538;28;20031;-84
2021/12/25 05:08:36;;;;;;;25.23;10.90;;;9.10;99.90;;;;;;5096256;28;20076;-84
2021/12/25 05:11:03;;;;;;;22.90;9.80;;;9.10;99.90;;;;;;5097080;28;20032;-84
2021/12/25 05:13:29;;;;;;;20.63;9.90;;;9.10;99.90;;;;;;5114918;28;20027;-84
2021/12/25 05:15:55;;;;;;;24.85;10.73;;;9.10;99.90;;;;;;5096314;28;20083;-84
2021/12/25 05:18:21;;;;;;;22.25;10.43;;;9.10;99.90;;;;;;5096546;28;20090;-84
2021/12/25 05:20:47;;;;;;;24.45;10.52;;;9.10;99.90;;;;;;5095540;28;20385;-84
2021/12/25 05:23:12;;;;;;;22.08;10.70;;;9.10;99.90;;;;;;5096412;28;20039;-84
2021/12/25 05:25:41;;;;;;;21.58;10.38;;;9.10;99.90;;;;;;5095840;28;20031;-84
2021/12/25 05:28:07;;;;;;;26.83;11.07;;;9.20;99.90;;;;;;5096510;28;20058;-84
2021/12/25 05:30:32;;;;;;;24.27;10.90;;;9.20;99.90;;;;;;5096127;28;20023;-83
2021/12/25 05:32:58;;;;;;;20.77;10.23;;;9.10;99.90;;;;;;5110985;28;20028;-84
2021/12/25 05:35:24;;;;;;;20.98;10.40;;;9.10;99.90;;;;;;5080235;28;20036;-84
2021/12/25 05:37:56;;;;;;;22.60;10.95;;;9.10;99.90;;;;;;5079837;28;20024;-83
2021/12/25 05:40:23;;;;;;;22.95;10.65;;;9.10;99.90;;;;;;5080376;28;20024;-83
2021/12/25 05:42:49;;;;;;;22.02;10.85;;;9.10;99.90;;;;;;5079725;28;20032;-83
2021/12/25 05:45:15;;;;;;;21.20;10.68;;;9.10;99.90;;;;;;5097866;28;20031;-83
2021/12/25 05:47:41;;;;;;;26.05;12.00;;;9.10;99.90;;;;;;5079159;28;20080;-83
2021/12/25 05:50:07;;;;;;;21.42;10.93;;;9.10;99.90;;;;;;5080188;28;20111;-84
2021/12/25 05:52:33;;;;;;;27.40;11.50;;;9.00;99.90;;;;;;5079851;28;20024;-82
2021/12/25 05:54:58;;;;;;;27.70;11.52;;;9.00;99.90;;;;;;5080049;28;20020;-84
2021/12/25 05:57:24;;;;;;;24.67;11.80;;;9.00;99.90;;;;;;5079959;28;20024;-84
2021/12/25 05:59:49;;;;;;;23.95;11.95;;;9.00;99.90;;;;;;5079002;28;20161;-84
2021/12/25 06:02:15;;;;;;;22.70;11.70;;;9.00;99.90;;;;;;5079557;28;20028;-84
2021/12/25 06:04:41;;;;;;;25.02;11.23;;;9.00;99.90;;;;;;5097175;28;20027;-83
2021/12/25 06:07:06;;;;;;;27.50;12.07;;;9.00;99.90;;;;;;5099940;28;20032;-84
2021/12/25 06:09:32;;;;;;;23.45;10.77;;;9.00;99.90;;;;;;5099980;28;20487;-84
2021/12/25 06:11:58;;;;;;;22.63;10.68;;;9.00;99.90;;;;;;5100034;28;20020;-84
2021/12/25 06:14:24;;;;;;;24.15;11.13;;;8.90;99.90;;;;;;5100249;28;20533;-84
2021/12/25 06:16:50;;;;;;;21.60;10.90;;;8.90;99.90;;;;;;5099500;28;20122;-84
2021/12/25 06:19:16;;;;;;;22.63;11.18;;;8.90;99.90;;;;;;5099903;28;20027;-83
2021/12/25 06:21:42;;;;;;;23.23;11.88;;;8.90;99.90;;;;;;5098836;28;20062;-84
2021/12/25 06:24:09;;;;;;;28.88;11.68;;;8.90;99.90;;;;;;5099735;28;20027;-84
2021/12/25 06:26:36;;;;;;;27.65;11.85;;;8.90;99.90;;;;;;5099082;28;20476;-83
2021/12/25 06:29:03;;;;;;;24.33;11.00;;;8.90;99.90;;;;;;5099423;28;20059;-84
2021/12/25 06:31:29;;;;;;;24.05;11.07;;;8.90;99.90;;;;;;5099577;28;20028;-84
2021/12/25 06:33:54;;;;;;;27.02;11.30;;;8.90;99.90;;;;;;5087277;28;20055;-83
2021/12/25 06:36:20;;;;;;;22.70;11.68;;;8.80;99.90;;;;;;5079643;28;20028;-84
2021/12/25 06:38:46;;;;;;;28.90;12.40;;;8.80;99.90;;;;;;5078787;28;20047;-83
2021/12/25 06:41:12;;;;;;;25.75;11.18;;;8.80;99.90;;;;;;5079061;28;20028;-84
2021/12/25 06:43:39;;;;;;;21.60;11.90;;;8.80;99.90;;;;;;5078410;28;20184;-83
2021/12/25 06:46:05;;;;;;;22.50;10.88;;;8.80;99.90;;;;;;5078562;28;20032;-84
2021/12/25 06:48:31;;;;;;;23.67;10.70;;;8.80;99.90;;;;;;5079151;28;20385;-84
2021/12/25 06:50:56;;;;;;;25.55;11.60;;;8.80;99.90;;;;;;5078471;28;20453;-84
2021/12/25 06:53:22;;;;;;;24.25;11.32;;;8.80;99.90;;;;;;5078884;28;20034;-84
2021/12/25 06:55:48;;;;;;;24.58;11.55;;;8.80;99.90;;;;;;5078612;28;20439;-84
2021/12/25 06:58:14;;;;;;;26.00;11.40;;;8.80;99.90;;;;;;5079010;28;20036;-83
2021/12/25 07:00:39;;;;;;;22.98;11.30;;;8.80;99.90;;;;;;5078160;28;20048;-84
2021/12/25 07:03:05;;;;;;;22.95;10.88;;;8.80;99.90;;;;;;5096732;28;20074;-84
2021/12/25 07:05:31;;;;;;;23.77;11.10;;;8.80;99.90;;;;;;5096497;28;20073;-84
2021/12/25 07:07:56;;;;;;;21.45;10.75;;;8.80;99.90;;;;;;5077979;28;20032;-84
2021/12/25 07:10:23;;;;;;;23.00;11.15;;;8.80;99.90;;;;;;5078746;28;20461;-84
2021/12/25 07:12:51;;;;;;;25.50;12.00;;;8.80;99.90;;;;;;5095640;28;20060;-84
2021/12/25 07:15:17;;;;;;;22.50;11.23;;;8.80;99.90;;;;;;5078595;28;20032;-84
2021/12/25 07:17:43;;;;;;;25.27;11.68;;;8.80;99.90;;;;;;5095935;28;20020;-84
2021/12/25 07:20:09;;;;;;;21.15;10.82;;;8.80;99.90;;;;;;5078501;28;20461;-84
2021/12/25 07:22:35;;;;;;;24.27;11.60;;;8.80;99.90;;;;;;5096477;28;20047;-84
2021/12/25 07:25:03;;;;;;;22.35;11.45;;;8.80;99.90;;;;;;5077512;28;20020;-84
2021/12/25 07:27:28;;;;;;;20.13;10.57;;;8.80;99.90;;;;;;5078048;28;20036;-84
2021/12/25 07:29:54;;;;;;;21.33;10.60;;;8.80;99.90;;;;;;5093997;28;20383;-84
2021/12/25 07:32:20;;;;;;;26.42;10.73;;;8.80;99.90;;;;;;5098355;28;20028;-84
2021/12/25 07:34:49;;;;;;;22.52;10.55;;;8.80;99.90;;;;;;5097484;28;20491;-83
2021/12/25 07:37:15;;;;;;;22.48;11.13;;;8.80;99.90;;;;;;5098408;28;20023;-83
2021/12/25 07:39:42;;;;;;;19.75;10.95;;;8.80;99.90;;;;;;5115915;28;20031;-83
2021/12/25 07:42:08;;;;;;;23.85;11.45;;;8.80;99.90;;;;;;5098544;28;20031;-83
2021/12/25 07:44:34;;;;;;;26.38;12.07;;;8.80;99.90;;;;;;5115812;28;20030;-84
2021/12/25 07:47:00;;;;;;;22.27;10.90;;;8.80;99.90;;;;;;5097587;28;20124;-84
2021/12/25 07:49:27;;;;;;;25.20;11.27;;;8.80;99.90;;;;;;5098182;28;20035;-84
2021/12/25 07:51:53;;;;;;;24.70;11.50;;;8.80;99.90;;;;;;5097706;28;20384;-83
2021/12/25 07:54:19;;;;;;;22.50;10.90;;;8.80;99.90;;;;;;5098011;28;20030;-83
2021/12/25 07:56:44;;;;;;;24.00;11.27;;;8.80;99.90;;;;;;5096644;28;20375;-83
2021/12/25 07:59:10;;;;;;;23.65;11.52;;;8.70;99.90;;;;;;5098085;28;20468;-84
2021/12/25 08:01:36;;;;;;;23.80;11.25;;;8.70;99.90;;;;;;5098101;28;20031;-85
2021/12/25 08:04:03;;;;;;;24.40;11.48;;;8.80;99.90;;;;;;5115253;28;20085;-85
2021/12/25 08:06:30;;;;;;;22.63;10.98;;;8.80;99.90;;;;;;5115681;28;20040;-85
2021/12/25 08:09:00;;;;;;;21.95;10.30;;;8.80;99.90;;;;;;5097233;28;20020;-85
2021/12/25 08:11:27;;;;;;;23.13;11.02;;;8.80;99.90;;;;;;5097698;28;20024;-85
2021/12/25 08:13:52;;;;;;;20.65;10.27;;;8.80;99.90;;;;;;5097044;28;20027;-85
2021/12/25 08:16:18;;;;;;;22.15;11.07;;;8.80;99.90;;;;;;5097661;28;20487;-85
2021/12/25 08:18:44;;;;;;;22.85;10.25;;;8.80;99.90;;;;;;5097101;28;20027;-85
2021/12/25 08:21:10;;;;;;;21.73;10.10;;;8.80;99.90;;;;;;5097297;28;20055;-85
2021/12/25 08:23:36;;;;;;;21.80;9.80;;;8.80;99.90;;;;;;5097571;28;20028;-83
2021/12/25 08:26:04;;;;;;;20.15;9.73;;;8.80;99.90;;;;;;5096872;28;20495;-83
2021/12/25 08:28:30;;;;;;;19.95;10.15;;;8.80;99.90;;;;;;5115034;28;20026;-84
2021/12/25 08:30:56;;;;;;;17.63;9.02;;;8.90;99.90;;;;;;5114495;28;20022;-83
2021/12/25 08:33:22;;;;;;;17.63;9.18;;;8.90;99.90;;;;;;5089813;28;20023;-84
2021/12/25 08:35:47;;;;;;;20.70;10.15;;;8.90;99.90;;;;;;5093625;28;20485;-83
2021/12/25 08:38:14;;;;;;;19.98;9.07;;;8.90;99.90;;;;;;5076866;28;20031;-83
2021/12/25 08:40:41;;;;;;;18.85;9.45;;;9.00;99.90;;;;;;5076666;28;20407;-83
2021/12/25 08:43:07;;;;;;;17.58;8.77;;;9.00;99.90;;;;;;5076671;28;20024;-84
2021/12/25 08:45:46;;;;;;;17.77;9.25;;;9.10;99.90;;;;;;5076673;28;20130;-84
2021/12/25 08:48:11;;;;;;;20.25;9.60;;;9.10;99.90;;;;;;5094689;28;20035;-84
2021/12/25 08:50:38;;;;;;;14.70;8.50;;;9.20;99.90;;;;;;5076713;28;20024;-84
2021/12/25 08:53:03;;;;;;;20.08;9.73;;;9.10;99.90;;;;;;5076012;28;20080;-84
2021/12/25 08:55:29;;;;;;;19.25;9.95;;;9.20;99.90;;;;;;5076754;28;20028;-84
2021/12/25 08:57:55;;;;;;;18.80;9.07;;;9.20;99.90;;;;;;5076260;28;20115;-83
2021/12/25 09:00:21;;;;;;;18.75;9.45;;;9.20;99.90;;;;;;5076394;28;20031;-84
2021/12/25 09:02:47;;;;;;;18.83;9.13;;;9.30;99.90;;;;;;5075722;28;20028;-84
2021/12/25 09:05:13;;;;;;;14.80;7.93;;;9.20;99.90;;;;;;5094102;28;20020;-84
2021/12/25 09:07:39;;;;;;;17.35;7.78;;;9.30;99.90;;;;;;5076238;28;20524;-84
2021/12/25 09:10:05;;;;;;;17.90;9.10;;;9.30;99.90;;;;;;5076016;28;20180;-82
2021/12/25 09:12:33;;;;;;;18.92;9.10;;;9.20;99.90;;;;;;5076326;28;20066;-84
2021/12/25 09:14:59;;;;;;;18.27;8.90;;;9.20;99.90;;;;;;5075882;28;20081;-85
2021/12/25 09:17:25;;;;;;;16.30;7.97;;;9.30;99.90;;;;;;5076253;28;20038;-84
2021/12/25 09:19:51;;;;;;;14.52;7.60;;;9.30;99.90;;;;;;5075856;28;20024;-84
2021/12/25 09:22:17;;;;;;;14.40;8.00;;;9.30;99.90;;;;;;5072558;28;20051;-84
2021/12/25 09:24:43;;;;;;;15.40;8.50;;;9.30;99.90;;;;;;5073831;28;20086;-85
2021/12/25 09:27:09;;;;;;;14.43;8.30;;;9.30;99.90;;;;;;5072803;28;20041;-85
2021/12/25 09:29:35;;;;;;;15.48;7.82;;;9.30;99.90;;;;;;5076351;28;20119;-84
2021/12/25 09:32:01;;;;;;;15.55;7.63;;;9.30;99.90;;;;;;5075896;28;20028;-85
2021/12/25 09:34:27;;;;;;;16.27;8.40;;;9.40;99.90;;;;;;5077618;28;20029;-82
2021/12/25 09:36:53;;;;;;;15.95;7.85;;;9.40;99.90;;;;;;5073016;28;20488;-82
2021/12/25 09:39:20;;;;;;;14.80;7.63;;;9.30;99.90;;;;;;5073844;28;20035;-84
2021/12/25 09:41:46;;;;;;;14.85;7.40;;;9.40;99.90;;;;;;5055477;28;20032;-83
2021/12/25 09:44:12;;;;;;;15.65;7.95;;;9.40;99.90;;;;;;5073675;28;20032;-84
2021/12/25 09:46:38;;;;;;;14.25;7.90;;;9.40;99.90;;;;;;5055898;28;20029;-84
2021/12/25 09:49:04;;;;;;;14.65;7.47;;;9.40;99.90;;;;;;5055519;28;20027;-84
2021/12/25 09:51:29;;;;;;;12.90;7.53;;;9.40;99.90;;;;;;5055773;28;20115;-84
2021/12/25 09:54:01;;;;;;;13.55;6.88;;;9.40;99.90;;;;;;5055391;28;20052;-83
2021/12/25 09:56:28;;;;;;;;;;;9.40;99.90;;;;;;5056374;28;20032;-83
2021/12/25 09:58:54;;;;;;;13.85;6.95;;;9.40;99.90;;;;;;5073063;28;19914;-83
2021/12/25 10:01:45;;;;;;;14.15;7.07;;;9.50;99.90;;;;;;5073450;28;20025;-83
2021/12/25 10:04:32;;;;;;;11.73;7.10;;;9.50;99.90;;;;;;5055562;28;20029;-84
2021/12/25 10:07:10;;;;;;;14.52;6.75;;;9.50;99.90;;;;;;5054280;28;20067;-84
2021/12/25 10:09:35;;;;;;;13.52;7.15;;;9.50;99.90;;;;;;5055820;28;20024;-85
2021/12/25 10:12:03;;;;;;;13.20;6.78;;;9.60;99.90;;;;;;5072826;28;20100;-84
2021/12/25 10:14:29;;;;;;;11.40;6.85;;;9.50;99.90;;;;;;5055970;28;20355;-85
2021/12/25 10:16:55;;;;;;;12.65;7.03;;;9.60;99.90;;;;;;5055179;28;20170;-83
2021/12/25 10:19:27;;;;;;;13.05;6.63;;;9.60;99.90;;;;;;5056432;28;20497;-84
2021/12/25 10:22:05;;;;;;;13.77;6.27;;;9.60;99.90;;;;;;5071154;28;20055;-84
2021/12/25 10:24:37;;;;;;;11.63;6.28;;;9.60;99.90;;;;;;5079385;28;20260;-84
2021/12/25 10:27:13;;;;;;;12.38;6.28;;;9.70;99.90;;;;;;5078885;28;20036;-84
2021/12/25 10:29:39;;;;;;;10.30;5.40;;;9.70;99.90;;;;;;5093721;28;20030;-83
2021/12/25 10:32:24;;;;;;;12.20;6.75;;;9.70;99.90;;;;;;5116825;28;20023;-84
2021/12/25 10:34:51;;;;;;;11.50;6.82;;;9.70;99.90;;;;;;5079746;28;20548;-83
2021/12/25 10:37:20;;;;;;;10.93;6.32;;;9.70;99.90;;;;;;5079051;28;20492;-83
2021/12/25 10:39:49;;;;;;;11.82;6.20;;;9.80;99.90;;;;;;5079298;28;20024;-84
2021/12/25 10:42:20;;;;;;;11.55;5.93;;;9.80;99.90;;;;;;5079011;28;20028;-84
2021/12/25 10:44:50;;;;;;;12.48;5.90;;;9.80;99.90;;;;;;5078966;28;20092;-84
2021/12/25 10:47:20;;;;;;;10.32;5.72;;;9.80;99.90;;;;;;5079056;28;20538;-83
2021/12/25 10:49:57;;;;;;;10.55;5.78;;;9.80;99.90;;;;;;5078572;28;20024;-84
2021/12/25 10:52:26;;;;;;;9.73;5.60;;;9.80;99.90;;;;;;5078945;28;20036;-83
2021/12/25 10:55:01;;;;;;;13.38;6.05;;;9.80;99.90;;;;;;5078447;28;20381;-83
2021/12/25 10:57:54;;;;;;;9.45;5.30;;;9.80;99.90;;;;;;5096493;28;20067;-84
2021/12/25 11:00:20;;;;;;;9.40;5.88;;;9.90;99.90;;;;;;5074622;28;20062;-84
2021/12/25 11:03:01;;;;;;;11.60;5.95;;;9.90;99.90;;;;;;5096392;28;20024;-84
2021/12/25 11:05:34;;;;;;;10.73;5.85;;;9.90;99.90;;;;;;5078623;28;20028;-84
2021/12/25 11:08:08;;;;;;;11.63;6.35;;;9.90;99.90;;;;;;5078215;28;20036;-84
2021/12/25 11:11:03;;;;;;;10.55;5.70;;;9.90;99.90;;;;;;5078490;28;20020;-84
2021/12/25 11:13:40;;;;;;;12.05;5.80;;;9.90;99.90;;;;;;5075455;28;20056;-84
2021/12/25 11:16:14;;;;;;;11.25;5.93;;;9.90;99.90;;;;;;5077963;28;20067;-83
2021/12/25 11:18:50;;;;;;;13.45;6.15;;;9.80;99.90;;;;;;5078897;28;20119;-84
2021/12/25 11:21:16;;;;;;;13.90;7.03;;;9.80;99.90;;;;;;5077917;28;20048;-84
2021/12/25 11:23:44;;;;;;;13.25;6.78;;;9.80;99.90;;;;;;5078363;28;20120;-84
2021/12/25 11:26:09;;;;;;;13.32;7.28;;;9.90;99.90;;;;;;5077867;28;20820;-84
2021/12/25 11:28:35;;;;;;;12.68;6.30;;;9.80;99.90;;;;;;5077899;28;20024;-84
2021/12/25 11:31:01;;;;;;;14.27;7.40;;;9.80;99.90;;;;;;5077589;28;20056;-84
2021/12/25 11:33:26;;;;;;;11.57;6.53;;;9.90;99.90;;;;;;5077808;28;20392;-84
2021/12/25 11:35:53;;;;;;;14.65;6.45;;;9.90;99.90;;;;;;5077479;28;20032;-83
2021/12/25 11:38:18;;;;;;;16.95;6.63;;;9.90;99.90;;;;;;5095771;28;20020;-84
2021/12/25 11:40:51;;;;;;;10.50;5.97;;;9.90;99.90;;;;;;5078111;28;20089;-84
2021/12/25 11:43:34;;;;;;;13.13;6.38;;;9.90;99.90;;;;;;5077905;28;20020;-84
2021/12/25 11:46:05;;;;;;;10.32;6.20;;;9.90;99.90;;;;;;5080246;28;20118;-84
2021/12/25 11:48:31;;;;;;;11.32;5.78;;;9.90;99.90;;;;;;5079638;28;20031;-84
2021/12/25 11:50:56;;;;;;;12.52;6.53;;;9.90;99.90;;;;;;5081339;28;20028;-84
2021/12/25 11:53:41;;;;;;;13.82;6.30;;;9.90;99.90;;;;;;5077949;28;20035;-85
2021/12/25 11:58:50;;;;;;;11.50;6.57;;;9.90;99.90;;;;;;5095615;28;20028;-84
2021/12/25 12:01:37;;;;;;;12.30;6.30;;;9.90;99.90;;;;;;5077096;28;20024;-84
2021/12/25 12:04:11;;;;;;;11.95;5.70;;;9.90;99.90;;;;;;5094928;28;20120;-85
2021/12/25 12:06:46;;;;;;;11.38;6.07;;;10.00;99.90;;;;;;5077304;28;20032;-84
2021/12/25 12:09:14;;;;;;;11.95;6.40;;;10.00;99.90;;;;;;5076875;28;20203;-84
2021/12/25 12:11:42;;;;;;;12.70;6.03;;;10.00;99.90;;;;;;5077371;28;20024;-84
2021/12/25 12:14:21;;;;;;;11.55;6.18;;;10.00;99.90;;;;;;5076831;28;20035;-84
2021/12/25 12:16:53;;;;;;;9.60;5.72;;;10.10;99.90;;;;;;5077292;28;20028;-84
2021/12/25 12:19:41;;;;;;;9.45;5.32;;;10.10;99.90;;;;;;5077174;28;20035;-85
2021/12/25 12:22:21;;;;;;;12.20;6.30;;;10.10;99.90;;;;;;5072906;28;20045;-84
2021/12/25 12:27:36;;;;;;;11.65;5.95;;;10.10;99.90;;;;;;5074601;28;20540;-84
2021/12/25 12:30:24;;;;;;;9.70;5.53;;;10.10;99.90;;;;;;5091571;28;20044;-84
2021/12/25 12:32:50;;;;;;;10.35;5.68;;;10.10;99.90;;;;;;5072577;28;20086;-84
2021/12/25 12:35:38;;;;;;;10.02;6.10;;;10.10;99.90;;;;;;5056334;28;20036;-85
2021/12/25 12:38:43;;;;;;;11.75;5.53;;;10.10;99.90;;;;;;5056386;28;20040;-85
2021/12/25 12:41:27;;;;;;;12.85;6.45;;;10.10;99.90;;;;;;5055986;28;20044;-84
2021/12/25 12:44:11;;;;;;;11.90;6.03;;;10.10;99.90;;;;;;5074074;28;20064;-84
2021/12/25 12:46:53;;;;;;;11.80;6.72;;;10.10;99.90;;;;;;5074375;28;20035;-84
2021/12/25 12:49:27;;;;;;;11.52;6.03;;;10.20;99.90;;;;;;5074128;28;20033;-85
2021/12/25 12:52:12;;;;;;;10.80;6.53;;;10.10;99.90;;;;;;5056550;28;20086;-84
2021/12/25 12:54:39;;;;;;;11.60;6.65;;;10.20;99.90;;;;;;5056802;28;20420;-84
2021/12/25 12:57:08;;;;;;;12.30;7.20;;;10.10;99.90;;;;;;5055995;28;20028;-84
2021/12/25 12:59:44;;;;;;;11.10;6.53;;;10.10;99.90;;;;;;5073911;28;20099;-84
2021/12/25 13:02:12;;;;;;;12.57;7.10;;;10.00;99.90;;;;;;5055863;28;20062;-85
2021/12/25 13:04:59;;;;;;;12.15;6.80;;;9.90;99.90;;;;;;5056049;28;20028;-84
2021/12/25 13:07:27;;;;;;;13.27;7.22;;;9.90;99.90;;;;;;5056400;28;20123;-84
2021/12/25 13:10:14;;;;;;;15.75;9.05;;;9.80;99.90;;;;;;5074037;28;20115;-84
2021/12/25 13:12:44;;;;;;;17.27;9.15;;;9.80;99.90;;;;;;5056390;28;20029;-84
2021/12/25 13:15:20;;;;;;;17.02;10.23;;;9.70;99.90;;;;;;5055712;28;20032;-84
2021/12/25 13:17:57;;;;;;;21.58;11.63;;;9.60;99.90;;;;;;5056091;28;20028;-84
2021/12/25 13:20:38;;;;;;;22.42;11.20;;;9.50;99.90;;;;;;5056185;28;20029;-84
2021/12/25 13:23:07;;;;;;;28.05;13.13;;;9.30;99.90;;;;;;5055737;28;20094;-84
2021/12/25 13:25:34;;;;;;;27.42;13.15;;;9.10;99.90;;;;;;5055975;28;20037;-84
2021/12/25 13:28:03;;;;;;;27.65;14.00;;;9.00;99.90;;;;;;5055658;28;20029;-83
2021/12/25 13:30:31;;;;;;;29.70;13.82;;;8.90;99.90;;;;;;5076103;28;20122;-84
2021/12/25 13:33:13;;;;;;;27.30;12.77;;;8.80;99.90;;;;;;5075506;28;20369;-84
2021/12/25 13:35:41;;;;;;;28.08;14.25;;;8.80;99.90;;;;;;5075962;28;20465;-84
2021/12/25 13:38:08;;;;;;;28.90;14.30;;;8.70;99.90;;;;;;5092930;28;20465;-84
2021/12/25 13:40:37;;;;;;;28.67;14.32;;;8.60;99.90;;;;;;5075886;28;20020;-84
2021/12/25 13:43:05;;;;;;;35.83;15.02;;;8.50;99.90;;;;;;5075189;28;20020;-84
2021/12/25 13:45:31;;;;;;;33.10;15.00;;;8.50;99.90;;;;;;5075790;28;20028;-84
2021/12/25 13:47:58;;;;;;;26.95;13.48;;;8.40;99.90;;;;;;5075633;28;20101;-84
2021/12/25 13:50:23;;;;;;;25.20;12.32;;;8.30;99.90;;;;;;5076126;28;20178;-84
2021/12/25 13:52:59;;;;;;;21.50;11.02;;;8.20;99.90;;;;;;5076022;28;20110;-84
2021/12/25 13:55:28;;;;;;;24.52;11.88;;;8.20;99.90;;;;;;5078481;28;20020;-84
2021/12/25 13:58:04;;;;;;;22.13;11.38;;;8.10;99.90;;;;;;5079784;28;20032;-84
2021/12/25 14:00:36;;;;;;;19.48;10.32;;;8.10;99.90;;;;;;5080131;28;20424;-84
2021/12/25 14:03:05;;;;;;;24.85;11.50;;;8.00;99.90;;;;;;5093241;28;20025;-84
2021/12/25 14:05:33;;;;;;;23.40;11.13;;;7.90;99.90;;;;;;5059660;28;20040;-84
2021/12/25 14:07:59;;;;;;;25.73;11.93;;;7.90;99.90;;;;;;5059313;28;20032;-84